Stolt Ilex — D5MX4 — position and weather

sailwx.info

Track history (hours):
 
Tides and Currents Weather Stations Pressure Air Temp Water Temp Dewpoint Dewpoint Depression Visibility Wind Speed Wind Dir Waves Ship Positions

Stolt Ilex

Last reported at 2018-Apr-23 17:49 UTC. Time now 2018-Apr-24 02:48 UTC.
Position N 34°00' E 014°28'.

Length 144 m; draft 8.3 m.

Type: Tanker. MMSI: 636017832.

Date/timePositionNaut miles runAvg speedWind from/ knotsBaromVisibWave heightAir tempDewpointWater temp
2018-Apr-23 17:49N 34°00' E 014°28'1614.0
2018-Apr-23 16:41N 33°59' E 014°48'613.9
2018-Apr-23 16:13N 33°59' E 014°55'313.8
2018-Apr-23 15:59N 33°59' E 014°59'  
2018-Apr-20 08:00N 32°54' E 034°49'711.7
2018-Apr-20 07:23N 32°53' E 034°57'5 8.1
2018-Apr-20 06:44N 32°49' E 035°02'0 0.0
2018-Apr-19 06:40N 32°49' E 035°02'1 1.6
2018-Apr-19 06:06N 32°50' E 035°01'1 4.6
2018-Apr-19 05:57N 32°50' E 035°01'1 2.4
2018-Apr-19 05:28N 32°51' E 034°60'2 4.7
2018-Apr-19 04:57N 32°53' E 035°01'0 0.3
2018-Apr-19 04:30N 32°53' E 035°01'0 0.0
2018-Apr-19 03:59N 32°53' E 035°01'0 0.0
2018-Apr-19 03:24N 32°53' E 035°01'0 0.0
2018-Apr-19 02:02N 32°53' E 035°01'0 0.0
2018-Apr-19 01:56N 32°53' E 035°01'0 0.0
2018-Apr-19 00:45N 32°53' E 035°01'0 0.3
2018-Apr-19 00:25N 32°53' E 035°01'0 0.8
2018-Apr-18 23:51N 32°53' E 035°01'2 7.0
2018-Apr-18 23:30N 32°54' E 034°58'3 6.5
2018-Apr-18 22:58N 32°56' E 034°54'510.9
2018-Apr-18 22:30N 32°55' E 034°48'713.5
2018-Apr-18 22:01N 32°56' E 034°40'611.7
2018-Apr-18 21:31N 32°60' E 034°34'611.5
2018-Apr-18 21:01N 33°04' E 034°30'713.7
2018-Apr-18 20:30N 33°07' E 034°22'713.5
2018-Apr-18 20:00N 33°09' E 034°15'713.8
2018-Apr-18 19:30N 33°12' E 034°07'713.7
2018-Apr-18 19:01N 33°15' E 033°60'714.0
2018-Apr-18 18:29N 33°18' E 033°52'713.8
2018-Apr-18 18:00N 33°20' E 033°45'813.6
2018-Apr-18 17:26N 33°24' E 033°36'613.6
2018-Apr-18 16:59N 33°26' E 033°30'1213.6
2018-Apr-18 16:07N 33°30' E 033°16'1213.6
2018-Apr-18 15:13N 33°36' E 033°03'313.8
2018-Apr-18 15:00N 33°38' E 033°01'714.0
2018-Apr-18 14:30N 33°42' E 032°54'714.2
2018-Apr-18 14:00N 33°45' E 032°46'1514.1
2018-Apr-18 12:56N 33°51' E 032°29'2214.1
2018-Apr-18 11:24N 33°60' E 032°06'514.0
2018-Apr-18 11:01N 34°02' E 031°60'3113.8
2018-Apr-18 08:47N 34°15' E 031°26'513.8
2018-Apr-18 08:27N 34°17' E 031°21'2213.8
2018-Apr-18 06:52N 34°27' E 030°57'513.7
2018-Apr-18 06:30N 34°29' E 030°52'713.6
2018-Apr-18 06:00N 34°32' E 030°44'713.5
2018-Apr-18 05:28N 34°35' E 030°36'28412.6
2018-Apr-17 06:54N 37°26' E 025°55'612.0
2018-Apr-17 06:25N 37°30' E 025°51'  
2018-Apr-14 04:21N 39°45' E 025°38'412.6
2018-Apr-14 04:00N 39°48' E 025°42'612.5
2018-Apr-14 03:30N 39°52' E 025°47'612.7
2018-Apr-14 03:00N 39°57' E 025°54'1613.0
2018-Apr-14 01:46N 40°02' E 026°13'3010.6
2018-Apr-13 22:58N 40°23' E 026°40'  
Track history (hours):
 
Tides and Currents Weather Stations Pressure Air Temp Water Temp Dewpoint Dewpoint Depression Visibility Wind Speed Wind Dir Waves Ship Positions

Stolt Ilex

Last reported at 2018-Apr-23 17:49 UTC. Time now 2018-Apr-24 02:48 UTC.
Position N 34°00' E 014°28'.

Length 144 m; draft 8.3 m.

Type: Tanker. MMSI: 636017832.

Date/timePositionNaut miles runAvg speedWind from/ knotsBaromVisibWave heightAir tempDewpointWater temp
2018-Apr-23 17:49N 34°00' E 014°28'1614.0
2018-Apr-23 16:41N 33°59' E 014°48'613.9
2018-Apr-23 16:13N 33°59' E 014°55'313.8
2018-Apr-23 15:59N 33°59' E 014°59'  
2018-Apr-20 08:00N 32°54' E 034°49'711.7
2018-Apr-20 07:23N 32°53' E 034°57'5 8.1
2018-Apr-20 06:44N 32°49' E 035°02'0 0.0
2018-Apr-19 06:40N 32°49' E 035°02'1 1.6
2018-Apr-19 06:06N 32°50' E 035°01'1 4.6
2018-Apr-19 05:57N 32°50' E 035°01'1 2.4
2018-Apr-19 05:28N 32°51' E 034°60'2 4.7
2018-Apr-19 04:57N 32°53' E 035°01'0 0.3
2018-Apr-19 04:30N 32°53' E 035°01'0 0.0
2018-Apr-19 03:59N 32°53' E 035°01'0 0.0
2018-Apr-19 03:24N 32°53' E 035°01'0 0.0
2018-Apr-19 02:02N 32°53' E 035°01'0 0.0
2018-Apr-19 01:56N 32°53' E 035°01'0 0.0
2018-Apr-19 00:45N 32°53' E 035°01'0 0.3
2018-Apr-19 00:25N 32°53' E 035°01'0 0.8
2018-Apr-18 23:51N 32°53' E 035°01'2 7.0
2018-Apr-18 23:30N 32°54' E 034°58'3 6.5
2018-Apr-18 22:58N 32°56' E 034°54'510.9
2018-Apr-18 22:30N 32°55' E 034°48'713.5
2018-Apr-18 22:01N 32°56' E 034°40'611.7
2018-Apr-18 21:31N 32°60' E 034°34'611.5
2018-Apr-18 21:01N 33°04' E 034°30'713.7
2018-Apr-18 20:30N 33°07' E 034°22'713.5
2018-Apr-18 20:00N 33°09' E 034°15'713.8
2018-Apr-18 19:30N 33°12' E 034°07'713.7
2018-Apr-18 19:01N 33°15' E 033°60'714.0
2018-Apr-18 18:29N 33°18' E 033°52'713.8
2018-Apr-18 18:00N 33°20' E 033°45'813.6
2018-Apr-18 17:26N 33°24' E 033°36'613.6
2018-Apr-18 16:59N 33°26' E 033°30'1213.6
2018-Apr-18 16:07N 33°30' E 033°16'1213.6
2018-Apr-18 15:13N 33°36' E 033°03'313.8
2018-Apr-18 15:00N 33°38' E 033°01'714.0
2018-Apr-18 14:30N 33°42' E 032°54'714.2
2018-Apr-18 14:00N 33°45' E 032°46'1514.1
2018-Apr-18 12:56N 33°51' E 032°29'2214.1
2018-Apr-18 11:24N 33°60' E 032°06'514.0
2018-Apr-18 11:01N 34°02' E 031°60'3113.8
2018-Apr-18 08:47N 34°15' E 031°26'513.8
2018-Apr-18 08:27N 34°17' E 031°21'2213.8
2018-Apr-18 06:52N 34°27' E 030°57'513.7
2018-Apr-18 06:30N 34°29' E 030°52'713.6
2018-Apr-18 06:00N 34°32' E 030°44'713.5
2018-Apr-18 05:28N 34°35' E 030°36'28412.6
2018-Apr-17 06:54N 37°26' E 025°55'612.0
2018-Apr-17 06:25N 37°30' E 025°51'  
2018-Apr-14 04:21N 39°45' E 025°38'412.6
2018-Apr-14 04:00N 39°48' E 025°42'612.5
2018-Apr-14 03:30N 39°52' E 025°47'612.7
2018-Apr-14 03:00N 39°57' E 025°54'1613.0
2018-Apr-14 01:46N 40°02' E 026°13'3010.6
2018-Apr-13 22:58N 40°23' E 026°40'  

Dump ship's entire track history